createdAt,value
2023-01-19T00:00:54.579Z,8.03
2023-01-19T00:03:21.539Z,7.87
2023-01-19T00:05:48.705Z,8.13
2023-01-19T00:08:15.856Z,7.50
2023-01-19T00:10:46.609Z,6.87
2023-01-19T00:13:14.802Z,7.60
2023-01-19T00:15:41.955Z,8.00
2023-01-19T00:18:10.753Z,7.50
2023-01-19T00:20:39.117Z,8.37
2023-01-19T00:23:07.944Z,7.77
2023-01-19T00:25:35.607Z,8.43
2023-01-19T00:28:02.607Z,8.67
2023-01-19T00:30:29.830Z,8.93
2023-01-19T00:32:56.953Z,9.30
2023-01-19T00:35:23.856Z,8.47
2023-01-19T00:37:50.637Z,8.43
2023-01-19T00:40:18.269Z,8.57
2023-01-19T00:42:45.094Z,8.00
2023-01-19T00:45:20.949Z,8.63
2023-01-19T00:47:50.080Z,7.70
2023-01-19T00:50:17.478Z,8.87
2023-01-19T00:52:46.158Z,7.90
2023-01-19T00:55:15.222Z,8.10
2023-01-19T00:57:43.413Z,7.70
2023-01-19T01:00:15.181Z,8.57
2023-01-19T01:02:44.343Z,8.30
2023-01-19T01:05:12.577Z,7.93
2023-01-19T01:07:41.630Z,8.00
2023-01-19T01:10:15.701Z,10.23
2023-01-19T01:13:20.363Z,11.87
2023-01-19T01:15:30.452Z,11.90
2023-01-19T01:17:57.389Z,10.50
2023-01-19T01:20:28.585Z,9.73
2023-01-19T01:22:56.762Z,9.73
2023-01-19T01:25:26.224Z,9.57
2023-01-19T01:27:54.708Z,10.13
2023-01-19T01:30:22.346Z,9.20
2023-01-19T01:32:50.001Z,9.87
2023-01-19T01:35:17.342Z,9.50
2023-01-19T01:37:44.369Z,8.77
2023-01-19T01:40:17.461Z,9.63
2023-01-19T01:42:45.650Z,9.17
2023-01-19T01:45:34.023Z,8.07
2023-01-19T01:48:28.556Z,9.10
2023-01-19T01:51:20.620Z,8.17
2023-01-19T01:54:01.026Z,9.10
2023-01-19T01:56:35.790Z,9.40
2023-01-19T01:59:09.142Z,8.13
2023-01-19T02:01:55.765Z,9.20
2023-01-19T02:04:23.725Z,8.20
2023-01-19T02:07:09.410Z,8.93
2023-01-19T02:09:56.446Z,8.00
2023-01-19T02:12:42.175Z,8.57
2023-01-19T02:15:20.091Z,8.40
2023-01-19T02:17:47.655Z,9.10
2023-01-19T02:20:15.294Z,8.53
2023-01-19T02:22:49.845Z,8.13
2023-01-19T02:25:19.273Z,8.20
2023-01-19T02:27:46.400Z,8.43
2023-01-19T02:30:16.467Z,8.37
2023-01-19T02:32:43.835Z,8.73
2023-01-19T02:35:12.604Z,8.53
2023-01-19T02:37:42.403Z,8.20
2023-01-19T02:40:14.974Z,9.30
2023-01-19T02:42:50.309Z,9.90
2023-01-19T02:45:21.771Z,8.50
2023-01-19T02:47:52.108Z,8.57
2023-01-19T02:50:39.050Z,8.93
2023-01-19T02:53:13.078Z,8.07
2023-01-19T02:55:44.973Z,8.40
2023-01-19T02:58:34.269Z,8.27
2023-01-19T03:01:13.929Z,8.73
2023-01-19T03:04:13.362Z,8.10
2023-01-19T03:07:02.267Z,9.23
2023-01-19T03:09:50.383Z,9.30
2023-01-19T03:12:54.198Z,9.33
2023-01-19T03:15:31.766Z,8.37
2023-01-19T03:18:01.941Z,8.30
2023-01-19T03:20:29.293Z,8.57
2023-01-19T03:23:05.119Z,9.40
2023-01-19T03:25:36.857Z,8.10
2023-01-19T03:28:05.277Z,9.70
2023-01-19T03:30:38.487Z,9.00
2023-01-19T03:33:17.370Z,9.00
2023-01-19T03:35:50.446Z,8.60
2023-01-19T03:38:24.381Z,9.67
2023-01-19T03:40:59.793Z,9.23
2023-01-19T03:43:29.078Z,9.83
2023-01-19T03:45:57.426Z,8.93
2023-01-19T03:48:24.638Z,9.50
2023-01-19T03:50:52.486Z,9.90
2023-01-19T03:53:22.610Z,9.30
2023-01-19T03:55:51.978Z,10.33
2023-01-19T03:58:18.688Z,9.87
2023-01-19T04:00:45.496Z,9.20
2023-01-19T04:03:17.451Z,10.23
2023-01-19T04:05:45.747Z,9.83
2023-01-19T04:08:15.568Z,10.00
2023-01-19T04:10:42.295Z,9.83
2023-01-19T04:13:09.379Z,8.97
2023-01-19T04:15:36.160Z,9.80
2023-01-19T04:18:03.044Z,9.77
2023-01-19T04:20:30.004Z,10.33
2023-01-19T04:23:01.697Z,10.63
2023-01-19T04:25:29.187Z,10.97
2023-01-19T04:27:58.167Z,10.30
2023-01-19T04:30:25.513Z,10.70
2023-01-19T04:32:52.343Z,11.17
2023-01-19T04:35:19.218Z,11.37
2023-01-19T04:37:46.020Z,11.33
2023-01-19T04:40:12.811Z,10.63
2023-01-19T04:42:44.124Z,11.60
2023-01-19T04:45:15.092Z,11.60
2023-01-19T04:47:44.731Z,10.67
2023-01-19T04:50:11.728Z,11.63
2023-01-19T04:52:39.317Z,10.87
2023-01-19T04:55:07.381Z,10.67
2023-01-19T04:57:34.277Z,10.73
2023-01-19T05:00:01.241Z,9.97
2023-01-19T05:02:28.272Z,10.30
2023-01-19T05:04:55.022Z,10.60
2023-01-19T05:07:21.754Z,10.93
2023-01-19T05:09:48.518Z,9.47
2023-01-19T05:12:15.588Z,10.67
2023-01-19T05:14:43.168Z,9.93
2023-01-19T05:17:10.790Z,10.50
2023-01-19T05:19:37.754Z,10.47
2023-01-19T05:22:05.687Z,10.27
2023-01-19T05:24:32.690Z,11.27
2023-01-19T05:26:59.510Z,10.67
2023-01-19T05:29:26.366Z,9.87
2023-01-19T05:31:53.263Z,11.40
2023-01-19T05:34:20.124Z,10.10
2023-01-19T05:36:46.844Z,10.73
2023-01-19T05:39:13.635Z,10.37
2023-01-19T05:41:41.945Z,9.87
2023-01-19T05:44:09.647Z,10.37
2023-01-19T05:46:36.504Z,10.57
2023-01-19T05:49:04.987Z,10.33
2023-01-19T05:51:35.102Z,11.03
2023-01-19T05:54:02.063Z,10.37
2023-01-19T05:56:29.324Z,10.70
2023-01-19T05:58:56.086Z,11.13
2023-01-19T06:01:23.235Z,10.30
2023-01-19T06:03:50.010Z,11.13
2023-01-19T06:06:17.060Z,10.97
2023-01-19T06:08:46.836Z,10.57
2023-01-19T06:11:13.549Z,9.93
2023-01-19T06:13:41.962Z,9.57
2023-01-19T06:16:09.409Z,10.17
2023-01-19T06:18:36.287Z,10.30
2023-01-19T06:21:09.298Z,8.97
2023-01-19T06:23:36.771Z,9.70
2023-01-19T06:26:03.767Z,9.87
2023-01-19T06:28:33.728Z,9.83
2023-01-19T06:31:00.978Z,10.43
2023-01-19T06:33:27.968Z,11.93
2023-01-19T06:35:55.885Z,12.27
2023-01-19T06:38:23.073Z,11.67
2023-01-19T06:40:58.411Z,11.73
2023-01-19T06:43:26.600Z,11.17
2023-01-19T06:45:53.653Z,11.43
2023-01-19T06:48:20.863Z,11.00
2023-01-19T06:50:48.759Z,10.70
2023-01-19T06:53:17.571Z,11.33
2023-01-19T06:55:44.618Z,10.93
2023-01-19T06:58:12.309Z,11.07
2023-01-19T07:00:39.158Z,13.87
2023-01-19T07:03:08.265Z,11.50
2023-01-19T07:05:36.444Z,10.70
2023-01-19T07:08:03.988Z,11.60
2023-01-19T07:11:25.495Z,10.43
2023-01-19T07:13:17.617Z,10.80
2023-01-19T07:15:44.527Z,11.20
2023-01-19T07:18:11.302Z,11.17
2023-01-19T07:20:38.381Z,9.30
2023-01-19T07:23:05.261Z,12.17
2023-01-19T07:25:32.066Z,14.37
2023-01-19T07:28:00.101Z,15.60
2023-01-19T07:30:27.184Z,14.43
2023-01-19T07:32:58.670Z,15.97
2023-01-19T07:35:26.137Z,15.03
2023-01-19T07:37:52.998Z,15.17
2023-01-19T07:40:19.815Z,13.57
2023-01-19T07:42:49.073Z,14.37
2023-01-19T07:45:17.972Z,12.23
2023-01-19T07:47:45.904Z,12.07
2023-01-19T07:50:13.769Z,13.10
2023-01-19T07:52:40.837Z,13.43
2023-01-19T07:55:08.709Z,11.93
2023-01-19T07:57:36.105Z,10.50
2023-01-19T08:00:04.963Z,12.90
2023-01-19T08:02:33.897Z,12.40
2023-01-19T08:05:00.642Z,12.43
2023-01-19T08:07:27.367Z,12.23
2023-01-19T08:09:54.108Z,10.77
2023-01-19T08:12:20.821Z,11.13
2023-01-19T08:14:47.569Z,11.07
2023-01-19T08:17:14.471Z,13.03
2023-01-19T08:19:43.236Z,12.47
2023-01-19T08:22:09.953Z,12.57
2023-01-19T08:24:36.669Z,12.93
2023-01-19T08:27:03.884Z,11.67
2023-01-19T08:29:31.821Z,10.43
2023-01-19T08:32:01.716Z,9.77
2023-01-19T08:34:32.452Z,8.23
2023-01-19T08:36:59.501Z,8.07
2023-01-19T08:39:27.257Z,8.00
2023-01-19T08:41:54.054Z,8.43
2023-01-19T08:44:20.849Z,8.20
2023-01-19T08:46:47.773Z,8.43
2023-01-19T08:49:15.871Z,7.50
2023-01-19T08:51:46.179Z,7.13
2023-01-19T08:54:13.994Z,7.57
2023-01-19T08:56:40.855Z,8.00
2023-01-19T08:59:10.807Z,8.27
2023-01-19T09:01:39.038Z,8.10
2023-01-19T09:04:06.391Z,8.80
2023-01-19T09:06:34.055Z,8.40
2023-01-19T09:09:00.891Z,8.90
2023-01-19T09:11:27.620Z,8.03
2023-01-19T09:13:54.542Z,8.63
2023-01-19T09:16:21.394Z,9.33
2023-01-19T09:18:48.209Z,9.73
2023-01-19T09:21:15.745Z,9.98
2023-01-19T09:23:42.532Z,9.05
2023-01-19T09:26:10.624Z,9.10
2023-01-19T09:28:38.144Z,9.30
2023-01-19T09:31:07.619Z,10.20
2023-01-19T09:33:35.097Z,8.20
2023-01-19T09:36:02.216Z,9.30
2023-01-19T09:38:32.507Z,8.00
2023-01-19T09:41:00.669Z,7.90
2023-01-19T09:43:56.621Z,8.47
2023-01-19T09:46:30.644Z,8.77
2023-01-19T09:49:04.913Z,8.73
2023-01-19T09:51:39.035Z,8.83
2023-01-19T09:54:48.825Z,8.80
2023-01-19T09:57:15.940Z,9.80
2023-01-19T09:59:47.604Z,8.50
2023-01-19T10:02:41.386Z,9.95
2023-01-19T10:05:34.344Z,9.70
2023-01-19T10:08:19.260Z,9.03
2023-01-19T10:10:53.615Z,9.57
2023-01-19T10:13:48.648Z,9.23
2023-01-19T10:16:42.608Z,8.27
2023-01-19T10:19:29.874Z,8.63
2023-01-19T10:22:03.924Z,8.17
2023-01-19T10:24:42.805Z,7.87
2023-01-19T10:27:28.017Z,7.63
2023-01-19T10:29:55.011Z,6.70
2023-01-19T10:32:32.855Z,7.07
2023-01-19T10:35:00.905Z,6.23
2023-01-19T10:37:41.857Z,6.23
2023-01-19T10:40:11.661Z,5.80
2023-01-19T10:42:42.048Z,6.90
2023-01-19T10:45:29.290Z,6.57
2023-01-19T10:48:05.245Z,6.80
2023-01-19T10:50:36.978Z,5.90
2023-01-19T10:53:06.327Z,5.57
2023-01-19T10:55:38.085Z,5.27
2023-01-19T10:58:07.417Z,5.60
2023-01-19T11:00:42.931Z,5.57
2023-01-19T11:03:30.943Z,5.73
2023-01-19T11:06:15.581Z,5.83
2023-01-19T11:08:48.535Z,5.30
2023-01-19T11:11:15.238Z,5.53
2023-01-19T11:13:43.809Z,5.70
2023-01-19T11:16:30.909Z,5.80
2023-01-19T11:19:01.948Z,5.70
2023-01-19T11:21:32.882Z,5.60
2023-01-19T11:24:08.919Z,5.43
2023-01-19T11:26:47.959Z,4.73
2023-01-19T11:29:24.038Z,5.60
2023-01-19T11:31:52.792Z,5.67
2023-01-19T11:34:36.684Z,5.20
2023-01-19T11:37:18.411Z,5.23
2023-01-19T11:39:49.572Z,4.53
2023-01-19T11:42:18.349Z,5.33
2023-01-19T11:45:14.041Z,5.03
2023-01-19T11:47:45.209Z,4.63
2023-01-19T11:50:34.178Z,4.90
2023-01-19T11:53:29.068Z,4.50
2023-01-19T11:56:10.630Z,4.53
2023-01-19T11:58:47.351Z,3.93
2023-01-19T12:01:36.395Z,4.80
2023-01-19T12:04:27.455Z,4.30
2023-01-19T12:06:57.788Z,4.60
2023-01-19T12:09:34.869Z,4.30
2023-01-19T12:12:29.704Z,4.80
2023-01-19T12:15:42.781Z,4.23
2023-01-19T12:18:25.265Z,4.37
2023-01-19T12:20:55.594Z,4.80
2023-01-19T12:23:53.486Z,4.10
2023-01-19T12:26:34.933Z,4.13
2023-01-19T12:29:29.123Z,4.50
2023-01-19T12:32:13.801Z,4.43
2023-01-19T12:34:47.437Z,4.50
2023-01-19T12:37:40.568Z,4.30
2023-01-19T12:40:27.724Z,4.37
2023-01-19T12:43:03.719Z,4.50
2023-01-19T12:45:34.487Z,4.37
2023-01-19T12:48:03.852Z,5.00
2023-01-19T12:50:38.298Z,4.50
2023-01-19T12:53:19.222Z,4.73
2023-01-19T12:55:58.311Z,4.60
2023-01-19T12:58:25.876Z,4.60
2023-01-19T13:01:20.578Z,4.70
2023-01-19T13:04:08.195Z,4.10
2023-01-19T13:06:49.954Z,4.20
2023-01-19T13:09:35.320Z,3.80
2023-01-19T13:12:14.025Z,3.60
2023-01-19T13:14:43.882Z,3.80
2023-01-19T13:17:33.631Z,3.33
2023-01-19T13:20:24.670Z,3.10
2023-01-19T13:23:16.249Z,3.10
2023-01-19T13:25:54.186Z,3.40
2023-01-19T13:28:37.488Z,3.43
2023-01-19T13:31:06.797Z,3.60
2023-01-19T13:33:49.398Z,3.30
2023-01-19T13:36:26.516Z,3.27
2023-01-19T13:38:55.407Z,3.30
2023-01-19T13:41:27.679Z,3.07
2023-01-19T13:44:08.554Z,3.90
2023-01-19T13:46:38.476Z,3.37
2023-01-19T13:49:20.965Z,3.67
2023-01-19T13:52:23.227Z,3.50
2023-01-19T13:55:14.466Z,3.90
2023-01-19T13:57:45.347Z,4.07
2023-01-19T14:00:12.316Z,4.03
2023-01-19T14:02:57.033Z,3.83
2023-01-19T14:05:35.299Z,4.37
2023-01-19T14:08:24.053Z,3.80
2023-01-19T14:10:56.599Z,4.40
2023-01-19T14:13:37.284Z,4.30
2023-01-19T14:16:15.804Z,4.03
2023-01-19T14:18:42.607Z,3.80
2023-01-19T14:21:13.722Z,4.30
2023-01-19T14:23:49.523Z,4.50
2023-01-19T14:26:37.498Z,4.30
2023-01-19T14:29:31.831Z,4.17
2023-01-19T14:32:13.713Z,4.20
2023-01-19T14:35:12.307Z,5.03
2023-01-19T14:37:48.767Z,5.10
2023-01-19T14:40:20.264Z,4.97
2023-01-19T14:43:05.604Z,5.20
2023-01-19T14:45:39.304Z,4.90
2023-01-19T14:48:22.011Z,4.27
2023-01-19T14:51:02.740Z,4.63
2023-01-19T14:53:38.675Z,4.83
2023-01-19T14:56:07.093Z,5.20
2023-01-19T14:58:35.644Z,4.57
2023-01-19T15:01:04.513Z,4.70
2023-01-19T15:03:43.699Z,4.63
2023-01-19T15:06:19.109Z,4.70
2023-01-19T15:08:47.048Z,4.00
2023-01-19T15:11:31.184Z,4.50
2023-01-19T15:13:59.327Z,4.60
2023-01-19T15:16:29.876Z,5.27
2023-01-19T15:18:56.623Z,5.60
2023-01-19T15:21:26.241Z,5.20
2023-01-19T15:23:54.461Z,4.87
2023-01-19T15:26:24.617Z,4.60
2023-01-19T15:28:51.866Z,4.50
2023-01-19T15:31:25.044Z,4.80
2023-01-19T15:33:51.910Z,4.80
2023-01-19T15:36:22.096Z,5.00
2023-01-19T15:38:51.792Z,5.13
2023-01-19T15:41:32.167Z,5.07
2023-01-19T15:43:59.376Z,5.10
2023-01-19T15:46:26.780Z,4.17
2023-01-19T15:48:54.158Z,4.60
2023-01-19T15:51:25.704Z,5.40
2023-01-19T15:53:54.204Z,4.67
2023-01-19T15:56:28.262Z,5.10
2023-01-19T15:58:56.320Z,5.00
2023-01-19T16:01:34.259Z,4.70
2023-01-19T16:04:13.100Z,5.80
2023-01-19T16:06:40.535Z,5.73
2023-01-19T16:09:07.535Z,5.80
2023-01-19T16:11:35.380Z,5.43
2023-01-19T16:14:02.483Z,5.90
2023-01-19T16:16:29.510Z,5.73
2023-01-19T16:18:57.546Z,5.93
2023-01-19T16:21:24.810Z,4.93
2023-01-19T16:23:51.893Z,5.20
2023-01-19T16:26:32.399Z,5.27
2023-01-19T16:29:07.648Z,5.57
2023-01-19T16:31:34.802Z,5.93
2023-01-19T16:34:01.729Z,6.20
2023-01-19T16:36:34.950Z,6.30
2023-01-19T16:39:14.343Z,5.83
2023-01-19T16:41:42.301Z,6.00
2023-01-19T16:44:12.420Z,5.40
2023-01-19T16:46:43.110Z,5.60
2023-01-19T16:49:22.693Z,6.43
2023-01-19T16:51:50.730Z,7.03
2023-01-19T16:54:21.076Z,6.57
2023-01-19T16:56:48.578Z,6.93
2023-01-19T16:59:17.362Z,7.33
2023-01-19T17:01:45.512Z,7.30
2023-01-19T17:04:13.325Z,7.13
2023-01-19T17:06:40.748Z,6.70
2023-01-19T17:09:09.461Z,7.27
2023-01-19T17:11:36.648Z,7.33
2023-01-19T17:14:21.892Z,7.17
2023-01-19T17:16:49.783Z,6.20
2023-01-19T17:19:20.161Z,6.73
2023-01-19T17:21:48.826Z,6.73
2023-01-19T17:24:17.002Z,6.90
2023-01-19T17:26:45.865Z,7.10
2023-01-19T17:29:13.048Z,7.40
2023-01-19T17:31:40.412Z,9.07
2023-01-19T17:34:08.647Z,10.17
2023-01-19T17:36:36.067Z,10.13
2023-01-19T17:39:08.104Z,9.30
2023-01-19T17:41:35.785Z,8.47
2023-01-19T17:44:04.933Z,7.80
2023-01-19T17:46:36.577Z,8.17
2023-01-19T17:49:06.667Z,7.70
2023-01-19T17:51:34.124Z,8.00
2023-01-19T17:54:01.113Z,8.33
2023-01-19T17:56:30.419Z,8.00
2023-01-19T17:58:59.100Z,7.73
2023-01-19T18:01:29.492Z,9.70
2023-01-19T18:03:57.155Z,11.13
2023-01-19T18:06:24.710Z,10.90
2023-01-19T18:08:52.453Z,9.67
2023-01-19T18:11:21.005Z,9.20
2023-01-19T18:13:49.878Z,10.43
2023-01-19T18:16:29.075Z,8.70
2023-01-19T18:18:57.243Z,8.90
2023-01-19T18:21:27.997Z,9.33
2023-01-19T18:24:02.075Z,7.53
2023-01-19T18:26:30.787Z,8.00
2023-01-19T18:28:58.752Z,7.37
2023-01-19T18:31:27.699Z,7.40
2023-01-19T18:33:54.634Z,7.43
2023-01-19T18:36:21.466Z,7.00
2023-01-19T18:38:49.854Z,6.83
2023-01-19T18:41:20.141Z,7.03
2023-01-19T18:43:47.821Z,7.33
2023-01-19T18:46:15.960Z,8.40
2023-01-19T18:48:42.846Z,10.53
2023-01-19T18:51:13.918Z,10.97
2023-01-19T18:53:41.283Z,10.00
2023-01-19T18:56:11.418Z,9.60
2023-01-19T18:58:39.253Z,7.83
2023-01-19T19:01:24.650Z,7.10
2023-01-19T19:03:53.033Z,7.83
2023-01-19T19:06:21.221Z,7.90
2023-01-19T19:08:52.890Z,7.80
2023-01-19T19:11:22.407Z,7.30
2023-01-19T19:13:59.267Z,8.00
2023-01-19T19:16:26.313Z,7.10
2023-01-19T19:18:53.102Z,8.23
2023-01-19T19:21:23.838Z,7.73
2023-01-19T19:23:56.345Z,7.13
2023-01-19T19:26:25.199Z,7.73
2023-01-19T19:28:52.148Z,7.70
2023-01-19T19:31:22.668Z,8.40
2023-01-19T19:33:51.022Z,8.17
2023-01-19T19:36:20.022Z,8.27
2023-01-19T19:38:48.107Z,8.27
2023-01-19T19:41:22.347Z,9.00
2023-01-19T19:43:49.836Z,8.63
2023-01-19T19:46:21.538Z,8.20
2023-01-19T19:48:49.051Z,7.57
2023-01-19T19:51:29.029Z,7.87
2023-01-19T19:53:59.185Z,8.10
2023-01-19T19:56:28.883Z,8.13
2023-01-19T19:58:58.936Z,8.17
2023-01-19T20:01:32.529Z,8.07
2023-01-19T20:04:10.699Z,7.33
2023-01-19T20:06:41.594Z,6.70
2023-01-19T20:09:10.678Z,7.57
2023-01-19T20:11:37.634Z,7.97
2023-01-19T20:14:10.669Z,7.60
2023-01-19T20:16:38.087Z,8.10
2023-01-19T20:19:06.074Z,7.40
2023-01-19T20:21:36.660Z,7.70
2023-01-19T20:24:08.072Z,8.13
2023-01-19T20:26:40.283Z,7.80
2023-01-19T20:29:07.108Z,7.77
2023-01-19T20:31:43.334Z,7.93
2023-01-19T20:34:13.511Z,7.27
2023-01-19T20:36:41.103Z,8.53
2023-01-19T20:39:12.559Z,8.40
2023-01-19T20:41:43.660Z,7.70
2023-01-19T20:44:19.054Z,7.90
2023-01-19T20:46:46.043Z,7.53
2023-01-19T20:49:12.979Z,8.17
2023-01-19T20:51:43.380Z,8.43
2023-01-19T20:54:17.539Z,8.03
2023-01-19T20:56:44.357Z,6.57
2023-01-19T20:59:12.378Z,7.07
2023-01-19T21:01:40.517Z,7.07
2023-01-19T21:04:08.206Z,7.17
2023-01-19T21:06:36.376Z,6.50
2023-01-19T21:09:03.909Z,7.47
2023-01-19T21:11:31.263Z,7.63
2023-01-19T21:13:58.098Z,7.27
2023-01-19T21:16:28.001Z,8.10
2023-01-19T21:18:55.295Z,9.27
2023-01-19T21:21:30.833Z,10.13
2023-01-19T21:24:01.529Z,8.20
2023-01-19T21:26:30.112Z,8.70
2023-01-19T21:29:01.996Z,8.67
2023-01-19T21:31:29.982Z,7.63
2023-01-19T21:33:57.976Z,7.53
2023-01-19T21:36:25.897Z,7.87
2023-01-19T21:38:55.232Z,7.07
2023-01-19T21:41:21.963Z,7.57
2023-01-19T21:43:48.655Z,7.60
2023-01-19T21:46:22.177Z,7.97
2023-01-19T21:48:48.918Z,7.60
2023-01-19T21:51:16.061Z,6.93
2023-01-19T21:53:42.829Z,7.23
2023-01-19T21:56:11.309Z,7.03
2023-01-19T21:58:38.557Z,7.20
2023-01-19T22:01:13.656Z,6.37
2023-01-19T22:03:41.819Z,7.20
2023-01-19T22:06:12.726Z,7.70
2023-01-19T22:08:40.710Z,6.70
2023-01-19T22:11:10.801Z,6.80
2023-01-19T22:13:38.594Z,7.80
2023-01-19T22:16:10.335Z,6.07
2023-01-19T22:18:39.592Z,5.97
2023-01-19T22:21:31.648Z,6.63
2023-01-19T22:24:00.468Z,6.80
2023-01-19T22:26:29.993Z,6.13
2023-01-19T22:29:00.315Z,6.37
2023-01-19T22:31:29.163Z,6.10
2023-01-19T22:33:56.547Z,6.93
2023-01-19T22:36:26.636Z,6.80
2023-01-19T22:39:03.743Z,5.83
2023-01-19T22:41:33.360Z,7.40
2023-01-19T22:44:07.165Z,10.23
2023-01-19T22:46:36.743Z,10.37
2023-01-19T22:49:08.433Z,12.60
2023-01-19T22:51:36.459Z,10.53
2023-01-19T22:54:03.863Z,8.63
2023-01-19T22:56:33.428Z,7.33
2023-01-19T22:59:01.072Z,6.50
2023-01-19T23:01:33.403Z,7.00
2023-01-19T23:04:02.415Z,6.60
2023-01-19T23:06:32.556Z,7.00
2023-01-19T23:09:06.829Z,7.13
2023-01-19T23:11:36.933Z,6.63
2023-01-19T23:14:07.174Z,7.10
2023-01-19T23:16:35.757Z,6.80
2023-01-19T23:19:04.341Z,6.50
2023-01-19T23:21:32.514Z,6.47
2023-01-19T23:24:02.456Z,6.20
2023-01-19T23:26:31.462Z,6.53
2023-01-19T23:29:01.785Z,6.57
2023-01-19T23:31:35.655Z,5.60
2023-01-19T23:34:09.058Z,6.87
2023-01-19T23:36:38.853Z,5.60
2023-01-19T23:39:12.619Z,5.53
2023-01-19T23:41:39.369Z,6.57
2023-01-19T23:44:06.097Z,6.00
2023-01-19T23:46:32.883Z,6.00
2023-01-19T23:48:59.709Z,7.17
2023-01-19T23:51:30.075Z,6.73
2023-01-19T23:53:59.106Z,6.97
2023-01-19T23:56:33.348Z,7.17
2023-01-19T23:59:10.891Z,7.47
